Terminal Aerodrome Forecast
Issued by NWS Mobile, AL

Home | Current Version | Previous Version | Text Only | Print | Product List | Glossary On
Versions: 1 2 3 4 5 6 7 8 9 10 11 12
000
FTUS44 KMOB 220530
TAFMOB
TAF
KMOB 220530Z 2206/2306 10006KT P6SM OVC250
     FM220800 11009KT 5SM BR VCSH BKN008
     FM221600 15014G25KT 6SM BR VCTS OVC015CB
      TEMPO 2216/2220 VRB20G30KT 2SM TSRA BKN012CB
     FM222000 15014G25KT 4SM BR VCTS OVC012CB
      TEMPO 2220/2224 VRB20G30KT 2SM TSRA BKN010CB
     FM230300 18010KT P6SM OVC030=

USA.gov is the U.S. government's official web portal to all federal, state and local government web resources and services.